createdAt,value
2023-01-20T00:00:44.888Z,5.30
2023-01-20T00:03:11.725Z,5.30
2023-01-20T00:05:38.391Z,5.40
2023-01-20T00:08:05.334Z,5.30
2023-01-20T00:10:31.972Z,5.40
2023-01-20T00:12:58.613Z,5.30
2023-01-20T00:15:25.236Z,5.40
2023-01-20T00:17:51.896Z,5.40
2023-01-20T00:20:18.682Z,5.40
2023-01-20T00:22:45.294Z,5.40
2023-01-20T00:25:12.420Z,5.40
2023-01-20T00:27:39.393Z,5.40
2023-01-20T00:30:06.727Z,5.40
2023-01-20T00:32:44.701Z,5.40
2023-01-20T00:35:15.200Z,5.40
2023-01-20T00:37:43.077Z,5.30
2023-01-20T00:40:10.324Z,5.30
2023-01-20T00:42:36.962Z,5.30
2023-01-20T00:45:03.930Z,5.30
2023-01-20T00:47:30.601Z,5.40
2023-01-20T00:49:57.282Z,5.40
2023-01-20T00:52:24.001Z,5.40
2023-01-20T00:54:50.618Z,5.40
2023-01-20T00:57:17.271Z,5.40
2023-01-20T00:59:43.947Z,5.40
2023-01-20T01:02:10.649Z,5.40
2023-01-20T01:04:37.346Z,5.40
2023-01-20T01:07:04.026Z,5.40
2023-01-20T01:09:32.320Z,5.50
2023-01-20T01:11:59.019Z,5.40
2023-01-20T01:14:25.773Z,5.40
2023-01-20T01:16:52.625Z,5.40
2023-01-20T01:19:19.735Z,5.40
2023-01-20T01:21:46.374Z,5.40
2023-01-20T01:24:13.026Z,5.40
2023-01-20T01:26:39.624Z,5.40
2023-01-20T01:29:06.335Z,5.40
2023-01-20T01:31:33.337Z,5.40
2023-01-20T01:34:00.038Z,5.40
2023-01-20T01:36:26.662Z,5.40
2023-01-20T01:38:58.682Z,5.40
2023-01-20T01:41:26.300Z,5.40
2023-01-20T01:44:01.757Z,5.40
2023-01-20T01:46:28.421Z,5.50
2023-01-20T01:48:57.174Z,5.40
2023-01-20T01:51:28.403Z,5.50
2023-01-20T01:53:57.808Z,5.50
2023-01-20T01:56:28.166Z,5.50
2023-01-20T01:58:59.867Z,5.50
2023-01-20T02:01:28.395Z,5.50
2023-01-20T02:04:04.514Z,5.50
2023-01-20T02:06:38.311Z,5.50
2023-01-20T02:09:05.681Z,5.50
2023-01-20T02:11:41.518Z,5.50
2023-01-20T02:14:08.814Z,5.50
2023-01-20T02:16:44.870Z,5.50
2023-01-20T02:19:28.150Z,5.50
2023-01-20T02:22:16.530Z,5.50
2023-01-20T02:25:01.401Z,5.60
2023-01-20T02:27:52.911Z,5.50
2023-01-20T02:30:38.289Z,5.50
2023-01-20T02:33:13.366Z,5.50
2023-01-20T02:35:52.322Z,5.50
2023-01-20T02:38:52.813Z,5.50
2023-01-20T02:41:52.199Z,5.50
2023-01-20T02:44:34.945Z,5.50
2023-01-20T02:47:09.846Z,5.50
2023-01-20T02:49:41.389Z,5.50
2023-01-20T02:52:18.861Z,5.50
2023-01-20T02:54:49.997Z,5.50
2023-01-20T02:57:23.905Z,5.50
2023-01-20T02:59:53.279Z,5.50
2023-01-20T03:02:23.173Z,5.50
2023-01-20T03:05:04.828Z,5.50
2023-01-20T03:07:35.209Z,5.50
2023-01-20T03:10:08.022Z,5.50
2023-01-20T03:12:45.492Z,5.50
2023-01-20T03:15:13.267Z,5.50
2023-01-20T03:17:40.513Z,5.50
2023-01-20T03:20:08.158Z,5.50
2023-01-20T03:22:34.907Z,5.50
2023-01-20T03:25:03.005Z,5.50
2023-01-20T03:27:29.704Z,5.50
2023-01-20T03:29:56.355Z,5.50
2023-01-20T03:32:26.791Z,5.50
2023-01-20T03:34:55.796Z,5.60
2023-01-20T03:37:23.094Z,5.50
2023-01-20T03:39:50.036Z,5.50
2023-01-20T03:42:30.780Z,5.50
2023-01-20T03:45:40.178Z,5.60
2023-01-20T03:48:19.096Z,5.70
2023-01-20T03:50:54.901Z,5.60
2023-01-20T03:53:45.793Z,5.50
2023-01-20T03:56:55.230Z,5.50
2023-01-20T03:59:23.458Z,5.50
2023-01-20T04:01:52.197Z,5.50
2023-01-20T04:04:20.063Z,5.50
2023-01-20T04:06:50.295Z,5.50
2023-01-20T04:09:24.653Z,5.50
2023-01-20T04:11:51.684Z,5.50
2023-01-20T04:14:18.334Z,5.50
2023-01-20T04:16:55.750Z,5.50
2023-01-20T04:19:22.876Z,5.50
2023-01-20T04:22:00.565Z,5.50
2023-01-20T04:24:48.463Z,5.50
2023-01-20T04:27:15.067Z,5.50
2023-01-20T04:29:41.726Z,5.50
2023-01-20T04:32:10.524Z,5.50
2023-01-20T04:34:37.239Z,5.50
2023-01-20T04:37:04.090Z,5.50
2023-01-20T04:39:30.788Z,5.50
2023-01-20T04:41:57.525Z,5.50
2023-01-20T04:44:24.265Z,5.50
2023-01-20T04:46:50.972Z,5.50
2023-01-20T04:49:17.845Z,5.50
2023-01-20T04:51:44.502Z,5.50
2023-01-20T04:54:11.430Z,5.50
2023-01-20T04:56:38.132Z,5.50
2023-01-20T04:59:05.083Z,5.50
2023-01-20T05:01:31.806Z,5.50
2023-01-20T05:03:58.577Z,5.50
2023-01-20T05:06:25.403Z,5.50
2023-01-20T05:08:52.178Z,5.50
2023-01-20T05:11:19.372Z,5.50
2023-01-20T05:13:46.073Z,5.50
2023-01-20T05:16:12.785Z,5.50
2023-01-20T05:18:39.546Z,5.50
2023-01-20T05:21:08.708Z,5.50
2023-01-20T05:23:35.713Z,5.50
2023-01-20T05:26:02.396Z,5.50
2023-01-20T05:28:29.074Z,5.50
2023-01-20T05:30:55.774Z,5.50
2023-01-20T05:33:22.455Z,5.50
2023-01-20T05:35:49.092Z,5.50
2023-01-20T05:38:15.792Z,5.50
2023-01-20T05:40:42.576Z,5.60
2023-01-20T05:43:10.263Z,5.60
2023-01-20T05:45:37.786Z,5.50
2023-01-20T05:48:04.718Z,5.60
2023-01-20T05:50:31.319Z,5.60
2023-01-20T05:52:58.031Z,5.50
2023-01-20T05:55:24.770Z,5.50
2023-01-20T05:57:51.472Z,5.60
2023-01-20T06:00:18.844Z,5.60
2023-01-20T06:02:45.945Z,5.60
2023-01-20T06:05:13.094Z,5.60
2023-01-20T06:07:40.095Z,5.60
2023-01-20T06:10:08.613Z,5.60
2023-01-20T06:12:35.380Z,5.60
2023-01-20T06:15:02.435Z,5.60
2023-01-20T06:17:29.053Z,5.50
2023-01-20T06:19:55.707Z,5.60
2023-01-20T06:22:22.447Z,5.50
2023-01-20T06:24:49.085Z,5.60
2023-01-20T06:27:15.770Z,5.60
2023-01-20T06:29:42.393Z,5.50
2023-01-20T06:32:09.009Z,5.60
2023-01-20T06:34:36.546Z,5.50
2023-01-20T06:37:03.919Z,5.50
2023-01-20T06:39:30.567Z,5.50
2023-01-20T06:41:58.882Z,5.50
2023-01-20T06:44:26.453Z,5.50
2023-01-20T06:46:53.154Z,5.50
2023-01-20T06:49:34.925Z,5.50
2023-01-20T06:52:01.570Z,5.50
2023-01-20T06:54:28.244Z,5.50
2023-01-20T06:56:54.883Z,5.50
2023-01-20T06:59:21.466Z,5.50
2023-01-20T07:01:48.296Z,5.50
2023-01-20T07:04:15.097Z,5.50
2023-01-20T07:06:42.280Z,5.50
2023-01-20T07:09:11.529Z,5.50
2023-01-20T07:11:38.249Z,5.40
2023-01-20T07:14:05.770Z,5.50
2023-01-20T07:16:33.534Z,5.40
2023-01-20T07:19:00.238Z,5.40
2023-01-20T07:21:26.936Z,5.40
2023-01-20T07:23:53.628Z,5.40
2023-01-20T07:26:22.664Z,5.40
2023-01-20T07:28:49.655Z,5.40
2023-01-20T07:31:21.858Z,5.40
2023-01-20T07:33:48.772Z,5.40
2023-01-20T07:36:16.711Z,5.40
2023-01-20T07:38:46.274Z,5.40
2023-01-20T07:41:16.323Z,5.30
2023-01-20T07:43:44.270Z,5.40
2023-01-20T07:46:11.743Z,5.30
2023-01-20T07:48:38.819Z,5.40
2023-01-20T07:51:07.859Z,5.40
2023-01-20T07:53:49.459Z,5.40
2023-01-20T07:56:19.419Z,5.40
2023-01-20T07:58:47.439Z,5.40
2023-01-20T08:01:16.538Z,5.40
2023-01-20T08:03:43.995Z,5.40
2023-01-20T08:06:12.742Z,5.40
2023-01-20T08:08:39.943Z,5.40
2023-01-20T08:11:07.904Z,5.40
2023-01-20T08:13:34.752Z,5.40
2023-01-20T08:16:06.478Z,5.40
2023-01-20T08:18:35.107Z,5.40
2023-01-20T08:21:06.429Z,5.40
2023-01-20T08:23:34.010Z,5.40
2023-01-20T08:26:02.845Z,5.40
2023-01-20T08:28:30.703Z,5.40
2023-01-20T08:31:11.235Z,5.40
2023-01-20T08:33:39.278Z,5.40
2023-01-20T08:36:07.658Z,5.40
2023-01-20T08:38:35.025Z,5.50
2023-01-20T08:41:02.369Z,5.50
2023-01-20T08:43:29.030Z,5.50
2023-01-20T08:46:00.634Z,5.50
2023-01-20T08:48:28.051Z,5.50
2023-01-20T08:50:54.751Z,5.50
2023-01-20T08:53:21.468Z,5.50
2023-01-20T08:55:56.206Z,5.50
2023-01-20T08:58:25.447Z,5.60
2023-01-20T09:00:52.683Z,5.60
2023-01-20T09:03:19.621Z,5.60
2023-01-20T09:05:46.271Z,5.60
2023-01-20T09:08:13.665Z,5.60
2023-01-20T09:10:40.622Z,5.60
2023-01-20T09:13:07.393Z,5.70
2023-01-20T09:15:34.221Z,5.70
2023-01-20T09:18:00.932Z,5.70
2023-01-20T09:20:28.880Z,5.70
2023-01-20T09:22:55.760Z,5.70
2023-01-20T09:25:22.781Z,5.80
2023-01-20T09:27:49.517Z,5.80
2023-01-20T09:30:16.532Z,5.80
2023-01-20T09:32:43.187Z,5.80
2023-01-20T09:35:10.146Z,5.80
2023-01-20T09:37:55.456Z,5.80
2023-01-20T09:40:44.441Z,5.80
2023-01-20T09:43:56.133Z,5.80
2023-01-20T09:46:38.607Z,5.90
2023-01-20T09:49:59.453Z,5.90
2023-01-20T09:52:56.104Z,5.90
2023-01-20T09:55:25.855Z,5.90
2023-01-20T09:58:14.791Z,5.90
2023-01-20T10:00:46.717Z,5.90
2023-01-20T10:03:36.857Z,5.90
2023-01-20T10:06:27.516Z,5.90
2023-01-20T10:09:05.626Z,6.00
2023-01-20T10:11:41.721Z,6.00
2023-01-20T10:14:20.191Z,6.00
2023-01-20T10:17:15.574Z,6.00
2023-01-20T10:19:54.442Z,6.00
2023-01-20T10:22:29.108Z,6.00
2023-01-20T10:25:06.352Z,6.10
2023-01-20T10:27:37.216Z,6.10
2023-01-20T10:30:14.866Z,6.10
2023-01-20T10:33:04.590Z,6.10
2023-01-20T10:35:36.837Z,6.10
2023-01-20T10:38:07.682Z,6.10
2023-01-20T10:40:49.654Z,6.10
2023-01-20T10:43:17.880Z,6.10
2023-01-20T10:46:04.001Z,6.10
2023-01-20T10:48:39.661Z,6.10
2023-01-20T10:51:16.652Z,6.10
2023-01-20T10:54:07.729Z,6.10
2023-01-20T10:56:59.092Z,6.10
2023-01-20T10:59:34.899Z,6.10
2023-01-20T11:02:12.296Z,6.20
2023-01-20T11:04:39.425Z,6.20
2023-01-20T11:07:10.412Z,6.20
2023-01-20T11:09:37.705Z,6.20
2023-01-20T11:12:13.459Z,6.20
2023-01-20T11:14:40.507Z,6.30
2023-01-20T11:17:12.961Z,6.20
2023-01-20T11:19:54.501Z,6.30
2023-01-20T11:22:28.801Z,6.30
2023-01-20T11:24:58.870Z,6.30
2023-01-20T11:27:29.812Z,6.30
2023-01-20T11:30:04.263Z,6.30
2023-01-20T11:32:36.582Z,6.30
2023-01-20T11:35:19.575Z,6.30
2023-01-20T11:37:46.466Z,6.30
2023-01-20T11:40:21.552Z,6.30
2023-01-20T11:42:50.171Z,6.40
2023-01-20T11:45:35.046Z,6.40
2023-01-20T11:48:16.162Z,6.40
2023-01-20T11:50:57.368Z,6.40
2023-01-20T11:53:31.534Z,6.40
2023-01-20T11:56:02.078Z,6.40
2023-01-20T11:58:33.136Z,6.40
2023-01-20T12:01:05.793Z,6.40
2023-01-20T12:03:51.213Z,6.40
2023-01-20T12:06:25.659Z,6.50
2023-01-20T12:09:19.257Z,6.50
2023-01-20T12:11:57.680Z,6.70
2023-01-20T12:14:30.475Z,6.50
2023-01-20T12:17:14.491Z,6.50
2023-01-20T12:19:41.141Z,6.50
2023-01-20T12:22:23.459Z,6.50
2023-01-20T12:25:29.576Z,6.60
2023-01-20T12:28:23.081Z,6.60
2023-01-20T12:31:10.885Z,6.60
2023-01-20T12:33:45.369Z,6.60
2023-01-20T12:36:38.740Z,6.60
2023-01-20T12:39:28.301Z,6.60
2023-01-20T12:42:10.024Z,6.60
2023-01-20T12:44:53.630Z,6.60
2023-01-20T12:47:37.083Z,6.60
2023-01-20T12:50:17.533Z,6.60
2023-01-20T12:52:50.472Z,6.60
2023-01-20T12:55:37.657Z,6.60
2023-01-20T12:58:39.889Z,6.60
2023-01-20T13:01:28.222Z,6.60
2023-01-20T13:04:16.704Z,6.50
2023-01-20T13:07:13.318Z,6.50
2023-01-20T13:09:55.354Z,6.50
2023-01-20T13:12:41.292Z,6.50
2023-01-20T13:15:34.555Z,6.50
2023-01-20T13:18:31.464Z,6.50
2023-01-20T13:20:59.300Z,6.50
2023-01-20T13:23:37.116Z,6.50
2023-01-20T13:26:05.044Z,6.50
2023-01-20T13:28:32.121Z,6.50
2023-01-20T13:31:01.175Z,6.60
2023-01-20T13:33:35.843Z,6.60
2023-01-20T13:36:23.246Z,6.60
2023-01-20T13:39:10.951Z,6.60
2023-01-20T13:41:48.537Z,6.60
2023-01-20T13:44:35.596Z,6.60
2023-01-20T13:47:03.661Z,6.60
2023-01-20T13:49:48.490Z,6.60
2023-01-20T13:52:15.439Z,6.70
2023-01-20T13:54:44.606Z,6.60
2023-01-20T13:57:28.009Z,6.60
2023-01-20T13:59:56.064Z,6.60
2023-01-20T14:02:28.476Z,6.70
2023-01-20T14:04:55.687Z,6.60
2023-01-20T14:07:26.979Z,6.60
2023-01-20T14:09:55.470Z,6.60
2023-01-20T14:12:22.694Z,6.60
2023-01-20T14:14:50.262Z,6.60
2023-01-20T14:17:19.068Z,6.60
2023-01-20T14:19:51.686Z,6.60
2023-01-20T14:22:27.169Z,6.60
2023-01-20T14:24:57.291Z,6.60
2023-01-20T14:27:27.911Z,6.60
2023-01-20T14:29:57.227Z,6.60
2023-01-20T14:32:29.034Z,6.60
2023-01-20T14:34:56.623Z,6.50
2023-01-20T14:37:27.831Z,6.50
2023-01-20T14:39:56.839Z,6.50
2023-01-20T14:42:24.827Z,6.50
2023-01-20T14:44:53.110Z,6.50
2023-01-20T14:47:21.494Z,6.50
2023-01-20T14:49:49.881Z,6.50
2023-01-20T14:52:27.521Z,6.50
2023-01-20T14:54:56.336Z,6.50
2023-01-20T14:57:27.729Z,6.50
2023-01-20T15:00:15.126Z,6.40
2023-01-20T15:03:21.696Z,6.40
2023-01-20T15:05:59.714Z,6.40
2023-01-20T15:08:32.561Z,6.40
2023-01-20T15:11:14.629Z,6.30
2023-01-20T15:13:43.213Z,6.30
2023-01-20T15:16:18.400Z,6.30
2023-01-20T15:19:18.427Z,6.30
2023-01-20T15:21:56.358Z,6.30
2023-01-20T15:24:30.506Z,6.30
2023-01-20T15:27:02.842Z,6.30
2023-01-20T15:29:33.758Z,6.20
2023-01-20T15:32:12.409Z,6.20
2023-01-20T15:34:39.154Z,6.20
2023-01-20T15:37:18.418Z,6.20
2023-01-20T15:39:45.172Z,6.20
2023-01-20T15:42:12.948Z,6.20
2023-01-20T15:44:39.650Z,6.20
2023-01-20T15:47:19.420Z,6.20
2023-01-20T15:49:46.479Z,6.20
2023-01-20T15:52:13.944Z,6.10
2023-01-20T15:54:40.621Z,6.10
2023-01-20T15:57:14.136Z,6.10
2023-01-20T15:59:50.092Z,6.10
2023-01-20T16:02:21.959Z,6.10
2023-01-20T16:04:49.023Z,6.10
2023-01-20T16:07:20.419Z,6.10
2023-01-20T16:09:47.179Z,6.00
2023-01-20T16:12:15.238Z,6.00
2023-01-20T16:14:42.200Z,6.00
2023-01-20T16:17:23.370Z,6.00
2023-01-20T16:19:50.301Z,6.00
2023-01-20T16:22:17.182Z,6.00
2023-01-20T16:24:44.073Z,6.00
2023-01-20T16:27:20.798Z,5.90
2023-01-20T16:29:48.152Z,5.90
2023-01-20T16:32:17.442Z,5.90
2023-01-20T16:34:46.243Z,6.00
2023-01-20T16:37:14.378Z,5.90
2023-01-20T16:39:41.425Z,5.90
2023-01-20T16:42:13.947Z,5.90
2023-01-20T16:44:40.712Z,5.90
2023-01-20T16:47:08.257Z,5.90
2023-01-20T16:49:35.230Z,5.80
2023-01-20T16:52:01.960Z,5.80
2023-01-20T16:54:28.693Z,5.80
2023-01-20T16:56:55.483Z,5.80
2023-01-20T16:59:22.202Z,5.80
2023-01-20T17:01:49.244Z,5.80
2023-01-20T17:04:16.035Z,5.70
2023-01-20T17:06:43.232Z,5.70
2023-01-20T17:09:10.383Z,5.70
2023-01-20T17:11:38.875Z,5.70
2023-01-20T17:14:07.716Z,5.60
2023-01-20T17:16:35.673Z,5.60
2023-01-20T17:19:02.838Z,5.60
2023-01-20T17:21:32.416Z,5.50
2023-01-20T17:24:04.525Z,5.50
2023-01-20T17:26:31.710Z,5.50
2023-01-20T17:29:02.140Z,5.40
2023-01-20T17:31:28.979Z,5.40
2023-01-20T17:33:55.632Z,5.30
2023-01-20T17:36:22.743Z,5.30
2023-01-20T17:38:49.383Z,5.30
2023-01-20T17:41:16.085Z,5.20
2023-01-20T17:43:46.319Z,5.20
2023-01-20T17:46:25.055Z,5.10
2023-01-20T17:48:51.805Z,5.10
2023-01-20T17:51:27.777Z,5.10
2023-01-20T17:53:54.477Z,5.00
2023-01-20T17:56:22.427Z,5.00
2023-01-20T17:58:49.924Z,5.00
2023-01-20T18:01:19.656Z,4.90
2023-01-20T18:03:48.757Z,4.90
2023-01-20T18:06:18.353Z,4.90
2023-01-20T18:08:49.639Z,4.80
2023-01-20T18:11:16.334Z,4.80
2023-01-20T18:13:46.037Z,4.70
2023-01-20T18:16:14.749Z,4.70
2023-01-20T18:18:43.381Z,4.70
2023-01-20T18:21:11.945Z,4.70
2023-01-20T18:23:39.427Z,4.70
2023-01-20T18:26:08.178Z,4.70
2023-01-20T18:28:35.284Z,4.60
2023-01-20T18:31:08.321Z,4.60
2023-01-20T18:33:44.140Z,4.60
2023-01-20T18:36:16.396Z,4.60
2023-01-20T18:38:43.449Z,4.60
2023-01-20T18:41:11.575Z,4.50
2023-01-20T18:43:39.358Z,4.50
2023-01-20T18:46:07.018Z,4.50
2023-01-20T18:48:36.880Z,4.50
2023-01-20T18:51:03.837Z,4.40
2023-01-20T18:53:31.486Z,4.40
2023-01-20T18:56:01.209Z,4.40
2023-01-20T18:58:28.758Z,4.40
2023-01-20T19:01:17.567Z,4.40
2023-01-20T19:03:46.129Z,4.30
2023-01-20T19:06:18.428Z,4.30
2023-01-20T19:08:46.163Z,4.30
2023-01-20T19:11:17.535Z,4.30
2023-01-20T19:13:45.418Z,4.30
2023-01-20T19:16:12.959Z,4.20
2023-01-20T19:18:41.052Z,4.20
2023-01-20T19:21:10.251Z,4.20
2023-01-20T19:23:37.148Z,4.20
2023-01-20T19:26:06.329Z,4.10
2023-01-20T19:28:33.975Z,4.10
2023-01-20T19:31:08.462Z,4.10
2023-01-20T19:33:36.013Z,4.10
2023-01-20T19:36:05.208Z,4.00
2023-01-20T19:38:33.252Z,4.00
2023-01-20T19:41:11.512Z,4.00
2023-01-20T19:43:39.238Z,4.00
2023-01-20T19:46:09.072Z,4.00
2023-01-20T19:48:36.187Z,3.90
2023-01-20T19:51:08.049Z,3.90
2023-01-20T19:53:35.519Z,3.90
2023-01-20T19:56:20.350Z,3.90
2023-01-20T19:58:47.913Z,3.80
2023-01-20T20:01:20.150Z,3.80
2023-01-20T20:03:47.554Z,3.80
2023-01-20T20:06:32.817Z,3.80
2023-01-20T20:09:02.181Z,3.80
2023-01-20T20:11:30.177Z,3.80
2023-01-20T20:13:58.184Z,3.80
2023-01-20T20:16:26.818Z,3.70
2023-01-20T20:18:54.256Z,3.70
2023-01-20T20:21:21.253Z,3.70
2023-01-20T20:23:53.234Z,3.70
2023-01-20T20:26:21.565Z,3.70
2023-01-20T20:28:50.890Z,3.70
2023-01-20T20:31:18.534Z,3.70
2023-01-20T20:33:48.514Z,3.70
2023-01-20T20:36:15.781Z,3.60
2023-01-20T20:38:42.600Z,3.60
2023-01-20T20:41:09.932Z,3.60
2023-01-20T20:43:38.013Z,3.60
2023-01-20T20:46:07.237Z,3.60
2023-01-20T20:48:35.226Z,3.60
2023-01-20T20:51:10.334Z,3.50
2023-01-20T20:53:37.227Z,3.50
2023-01-20T20:56:08.681Z,3.50
2023-01-20T20:58:35.899Z,3.50
2023-01-20T21:01:08.896Z,3.50
2023-01-20T21:03:35.702Z,3.50
2023-01-20T21:06:02.342Z,3.50
2023-01-20T21:08:29.603Z,3.50
2023-01-20T21:11:04.709Z,3.50
2023-01-20T21:13:31.541Z,3.40
2023-01-20T21:16:09.399Z,3.40
2023-01-20T21:18:36.730Z,3.40
2023-01-20T21:21:05.683Z,3.40
2023-01-20T21:23:33.581Z,3.40
2023-01-20T21:26:05.198Z,3.40
2023-01-20T21:28:34.255Z,3.40
2023-01-20T21:31:01.222Z,3.40
2023-01-20T21:33:27.961Z,3.40
2023-01-20T21:35:54.654Z,3.40
2023-01-20T21:38:21.321Z,3.30
2023-01-20T21:40:59.827Z,3.30
2023-01-20T21:43:52.388Z,3.30
2023-01-20T21:46:19.629Z,3.30
2023-01-20T21:49:05.271Z,3.30
2023-01-20T21:51:50.707Z,3.30
2023-01-20T21:54:17.731Z,3.30
2023-01-20T21:56:44.676Z,3.30
2023-01-20T21:59:11.391Z,3.30
2023-01-20T22:01:38.643Z,3.20
2023-01-20T22:04:05.446Z,3.20
2023-01-20T22:06:32.097Z,3.20
2023-01-20T22:08:59.555Z,3.20
2023-01-20T22:11:27.333Z,3.20
2023-01-20T22:13:55.828Z,3.20
2023-01-20T22:16:24.302Z,3.20
2023-01-20T22:18:51.749Z,3.20
2023-01-20T22:21:19.512Z,3.20
2023-01-20T22:23:46.264Z,3.20
2023-01-20T22:26:13.210Z,3.10
2023-01-20T22:28:40.056Z,3.20
2023-01-20T22:31:17.128Z,3.10
2023-01-20T22:33:43.944Z,3.10
2023-01-20T22:36:10.660Z,3.10
2023-01-20T22:38:37.407Z,3.10
2023-01-20T22:41:05.543Z,3.10
2023-01-20T22:43:33.736Z,3.10
2023-01-20T22:46:02.261Z,3.10
2023-01-20T22:48:31.254Z,3.10
2023-01-20T22:51:07.258Z,3.10
2023-01-20T22:53:34.362Z,3.10
2023-01-20T22:56:22.665Z,3.10
2023-01-20T22:58:49.387Z,3.00
2023-01-20T23:01:19.095Z,3.10
2023-01-20T23:03:46.856Z,3.00
2023-01-20T23:06:14.090Z,3.00
2023-01-20T23:08:41.403Z,3.00
2023-01-20T23:11:19.463Z,3.00
2023-01-20T23:13:46.759Z,3.00
2023-01-20T23:16:16.446Z,3.00
2023-01-20T23:18:43.904Z,3.00
2023-01-20T23:21:10.949Z,3.00
2023-01-20T23:23:38.099Z,3.00
2023-01-20T23:26:14.704Z,2.90
2023-01-20T23:28:42.957Z,3.00
2023-01-20T23:31:12.974Z,3.00
2023-01-20T23:33:43.500Z,2.90
2023-01-20T23:36:21.799Z,2.90
2023-01-20T23:38:48.706Z,2.90
2023-01-20T23:41:16.135Z,2.90
2023-01-20T23:43:42.962Z,2.90
2023-01-20T23:46:10.217Z,2.90
2023-01-20T23:48:37.362Z,2.90
2023-01-20T23:51:06.257Z,2.90
2023-01-20T23:53:36.420Z,2.80
2023-01-20T23:56:24.720Z,2.80
2023-01-20T23:58:51.837Z,2.80
